createdAt,value
2018-08-08T00:00:05.493Z,4.03
2018-08-08T00:00:38.510Z,3.62
2018-08-08T00:01:11.592Z,3.83
2018-08-08T00:01:44.525Z,3.50
2018-08-08T00:02:57.173Z,3.58
2018-08-08T00:03:30.128Z,3.80
2018-08-08T00:04:03.474Z,3.60
2018-08-08T00:04:36.490Z,4.05
2018-08-08T00:05:09.454Z,3.92
2018-08-08T00:05:42.542Z,3.70
2018-08-08T00:06:15.881Z,4.00
2018-08-08T00:06:48.806Z,4.25
2018-08-08T00:07:22.083Z,4.37
2018-08-08T00:07:55.019Z,3.85
2018-08-08T00:08:28.174Z,3.95
2018-08-08T00:09:01.105Z,3.87
2018-08-08T00:09:34.181Z,3.60
2018-08-08T00:10:07.164Z,3.92
2018-08-08T00:10:40.385Z,4.15
2018-08-08T00:11:13.294Z,3.70
2018-08-08T00:11:46.287Z,4.03
2018-08-08T00:12:19.201Z,3.62
2018-08-08T00:12:52.129Z,3.60
2018-08-08T00:13:25.250Z,4.08
2018-08-08T00:13:58.235Z,4.12
2018-08-08T00:14:31.299Z,3.75
2018-08-08T00:15:04.745Z,3.70
2018-08-08T00:15:37.922Z,4.12
2018-08-08T00:16:10.894Z,3.60
2018-08-08T00:16:44.015Z,3.98
2018-08-08T00:17:16.939Z,3.70
2018-08-08T00:17:49.855Z,4.03
2018-08-08T00:18:22.739Z,3.52
2018-08-08T00:18:56.137Z,4.12
2018-08-08T00:19:29.050Z,4.12
2018-08-08T00:20:02.134Z,4.35
2018-08-08T00:20:35.612Z,4.00
2018-08-08T00:21:08.539Z,4.00
2018-08-08T00:21:41.805Z,4.10
2018-08-08T00:22:14.818Z,3.95
2018-08-08T00:22:47.731Z,4.22
2018-08-08T00:23:20.929Z,4.10
2018-08-08T00:23:54.125Z,4.05
2018-08-08T00:24:27.064Z,4.92
2018-08-08T00:25:00.060Z,4.65
2018-08-08T00:25:33.040Z,3.98
2018-08-08T00:26:06.320Z,4.20
2018-08-08T00:26:39.360Z,3.83
2018-08-08T00:27:12.286Z,4.20
2018-08-08T00:27:45.398Z,3.58
2018-08-08T00:28:18.312Z,3.85
2018-08-08T00:28:51.271Z,4.00
2018-08-08T00:29:24.203Z,3.98
2018-08-08T00:29:57.187Z,4.00
2018-08-08T00:30:30.426Z,4.12
2018-08-08T00:31:03.386Z,4.20
2018-08-08T00:31:36.459Z,4.45
2018-08-08T00:32:09.664Z,4.37
2018-08-08T00:32:43.124Z,4.65
2018-08-08T00:33:16.054Z,4.53
2018-08-08T00:33:48.973Z,4.20
2018-08-08T00:34:21.997Z,4.15
2018-08-08T00:34:54.914Z,4.40
2018-08-08T00:35:27.871Z,4.22
2018-08-08T00:36:00.802Z,3.67
2018-08-08T00:36:33.731Z,4.40
2018-08-08T00:37:06.654Z,4.00
2018-08-08T00:37:39.574Z,3.87
2018-08-08T00:38:12.727Z,4.55
2018-08-08T00:38:45.954Z,4.05
2018-08-08T00:39:18.913Z,4.55
2018-08-08T00:39:51.850Z,4.70
2018-08-08T00:40:24.816Z,4.33
2018-08-08T00:40:57.825Z,4.20
2018-08-08T00:41:30.764Z,4.45
2018-08-08T00:42:03.785Z,4.10
2018-08-08T00:42:37.164Z,3.62
2018-08-08T00:43:10.097Z,3.98
2018-08-08T00:43:43.125Z,4.40
2018-08-08T00:44:16.137Z,4.05
2018-08-08T00:44:49.470Z,4.20
2018-08-08T00:45:22.502Z,4.25
2018-08-08T00:45:55.705Z,3.60
2018-08-08T00:46:28.653Z,4.65
2018-08-08T00:47:01.869Z,4.42
2018-08-08T00:47:34.810Z,4.70
2018-08-08T00:48:07.758Z,4.60
2018-08-08T00:48:40.684Z,4.47
2018-08-08T00:49:13.970Z,4.30
2018-08-08T00:49:47.037Z,4.40
2018-08-08T00:50:19.998Z,4.33
2018-08-08T00:50:53.105Z,4.20
2018-08-08T00:51:26.363Z,3.90
2018-08-08T00:51:59.311Z,4.12
2018-08-08T00:52:32.263Z,5.10
2018-08-08T00:53:05.212Z,4.10
2018-08-08T00:53:38.130Z,4.33
2018-08-08T00:54:11.073Z,4.78
2018-08-08T00:54:44.004Z,4.15
2018-08-08T00:55:16.974Z,4.17
2018-08-08T00:55:49.886Z,4.15
2018-08-08T00:56:23.007Z,4.58
2018-08-08T00:56:56.206Z,4.60
2018-08-08T00:57:29.136Z,4.45
2018-08-08T00:58:02.101Z,3.90
2018-08-08T00:58:35.136Z,4.20
2018-08-08T00:59:08.048Z,4.10
2018-08-08T00:59:41.158Z,4.67
2018-08-08T01:00:15.532Z,4.58
2018-08-08T01:00:48.453Z,4.37
2018-08-08T01:01:21.597Z,4.47
2018-08-08T01:01:54.503Z,4.45
2018-08-08T01:02:27.454Z,4.80
2018-08-08T01:03:00.427Z,4.50
2018-08-08T01:03:33.458Z,5.00
2018-08-08T01:04:06.557Z,4.60
2018-08-08T01:04:39.454Z,4.92
2018-08-08T01:05:13.687Z,4.40
2018-08-08T01:05:46.725Z,4.95
2018-08-08T01:06:19.654Z,4.30
2018-08-08T01:06:52.606Z,4.25
2018-08-08T01:07:25.513Z,5.15
2018-08-08T01:07:58.536Z,4.97
2018-08-08T01:08:31.749Z,5.00
2018-08-08T01:09:06.169Z,5.10
2018-08-08T01:09:39.265Z,4.55
2018-08-08T01:10:12.166Z,4.72
2018-08-08T01:10:45.471Z,4.87
2018-08-08T01:11:18.490Z,4.80
2018-08-08T01:11:51.685Z,4.92
2018-08-08T01:12:24.906Z,4.95
2018-08-08T01:12:58.080Z,4.00
2018-08-08T01:13:31.007Z,5.05
2018-08-08T01:14:04.084Z,4.00
2018-08-08T01:14:37.107Z,4.50
2018-08-08T01:15:10.926Z,4.35
2018-08-08T01:15:43.931Z,4.53
2018-08-08T01:16:16.955Z,4.53
2018-08-08T01:16:49.973Z,4.55
2018-08-08T01:17:22.897Z,4.20
2018-08-08T01:17:55.796Z,4.87
2018-08-08T01:18:28.895Z,4.80
2018-08-08T01:19:01.786Z,4.60
2018-08-08T01:19:34.937Z,3.85
2018-08-08T01:20:08.936Z,4.97
2018-08-08T01:20:41.894Z,4.50
2018-08-08T01:21:15.093Z,4.20
2018-08-08T01:21:48.008Z,4.42
2018-08-08T01:22:21.141Z,4.12
2018-08-08T01:22:54.084Z,4.67
2018-08-08T01:23:27.000Z,4.40
2018-08-08T01:24:00.122Z,4.20
2018-08-08T01:24:33.247Z,4.55
2018-08-08T01:25:07.234Z,4.70
2018-08-08T01:25:40.290Z,4.87
2018-08-08T01:26:13.492Z,5.35
2018-08-08T01:26:46.382Z,5.22
2018-08-08T01:27:19.328Z,4.33
2018-08-08T01:27:52.303Z,4.72
2018-08-08T01:28:25.226Z,4.67
2018-08-08T01:28:58.133Z,4.50
2018-08-08T01:29:31.234Z,4.40
2018-08-08T01:30:05.941Z,4.60
2018-08-08T01:30:38.879Z,4.40
2018-08-08T01:31:12.072Z,4.87
2018-08-08T01:31:45.060Z,4.50
2018-08-08T01:32:18.093Z,4.60
2018-08-08T01:32:51.391Z,4.78
2018-08-08T01:33:24.438Z,4.80
2018-08-08T01:33:57.348Z,4.60
2018-08-08T01:34:30.312Z,4.95
2018-08-08T01:35:03.944Z,5.00
2018-08-08T01:35:36.879Z,5.05
2018-08-08T01:36:10.051Z,4.80
2018-08-08T01:36:43.223Z,5.00
2018-08-08T01:37:16.352Z,4.67
2018-08-08T01:37:49.568Z,4.70
2018-08-08T01:38:22.703Z,5.00
2018-08-08T01:38:55.627Z,4.83
2018-08-08T01:39:28.601Z,4.28
2018-08-08T01:40:01.662Z,4.30
2018-08-08T01:40:34.647Z,4.80
2018-08-08T01:41:07.604Z,4.50
2018-08-08T01:41:40.543Z,4.53
2018-08-08T01:42:13.753Z,4.67
2018-08-08T01:42:46.699Z,4.40
2018-08-08T01:43:19.617Z,4.85
2018-08-08T01:43:52.574Z,4.30
2018-08-08T01:44:25.565Z,5.00
2018-08-08T01:44:58.732Z,4.25
2018-08-08T01:45:31.747Z,4.65
2018-08-08T01:46:04.899Z,4.83
2018-08-08T01:46:37.916Z,4.15
2018-08-08T01:47:10.859Z,5.05
2018-08-08T01:47:43.808Z,4.75
2018-08-08T01:48:16.975Z,4.45
2018-08-08T01:48:50.067Z,4.85
2018-08-08T01:49:23.226Z,5.15
2018-08-08T01:49:56.265Z,5.62
2018-08-08T01:50:29.235Z,4.65
2018-08-08T01:51:02.163Z,4.70
2018-08-08T01:51:35.070Z,5.20
2018-08-08T01:52:08.005Z,5.35
2018-08-08T01:52:41.064Z,4.40
2018-08-08T01:53:13.998Z,4.60
2018-08-08T01:53:47.141Z,5.20
2018-08-08T01:54:20.276Z,5.33
2018-08-08T01:54:53.309Z,4.80
2018-08-08T01:55:26.273Z,5.30
2018-08-08T01:55:59.254Z,5.10
2018-08-08T01:56:32.389Z,5.47
2018-08-08T01:57:05.574Z,4.90
2018-08-08T01:57:38.801Z,5.62
2018-08-08T01:58:11.902Z,5.35
2018-08-08T01:58:44.959Z,4.70
2018-08-08T01:59:18.304Z,5.15
2018-08-08T01:59:51.253Z,5.00
2018-08-08T02:00:24.210Z,5.08
2018-08-08T02:00:57.342Z,5.80
2018-08-08T02:01:30.416Z,5.33
2018-08-08T02:02:03.559Z,4.50
2018-08-08T02:02:36.892Z,5.25
2018-08-08T02:03:09.948Z,6.00
2018-08-08T02:03:42.897Z,5.12
2018-08-08T02:04:15.957Z,4.60
2018-08-08T02:04:48.918Z,5.37
2018-08-08T02:05:22.026Z,4.92
2018-08-08T02:06:01.193Z,5.15
2018-08-08T02:06:34.122Z,5.47
2018-08-08T02:07:07.089Z,5.00
2018-08-08T02:07:40.201Z,4.75
2018-08-08T02:08:13.268Z,4.58
2018-08-08T02:08:46.281Z,5.20
2018-08-08T02:09:19.220Z,4.97
2018-08-08T02:09:52.176Z,5.20
2018-08-08T02:10:25.112Z,4.58
2018-08-08T02:10:58.044Z,4.72
2018-08-08T02:11:30.993Z,5.20
2018-08-08T02:12:03.928Z,5.67
2018-08-08T02:12:37.051Z,5.40
2018-08-08T02:13:10.032Z,4.72
2018-08-08T02:13:42.945Z,5.28
2018-08-08T02:14:15.871Z,5.28
2018-08-08T02:14:48.838Z,4.65
2018-08-08T02:15:21.988Z,5.25
2018-08-08T02:15:54.902Z,4.55
2018-08-08T02:16:28.032Z,5.72
2018-08-08T02:17:00.938Z,5.12
2018-08-08T02:17:33.868Z,4.70
2018-08-08T02:18:06.797Z,5.10
2018-08-08T02:18:39.724Z,5.70
2018-08-08T02:19:12.661Z,5.17
2018-08-08T02:19:45.588Z,5.05
2018-08-08T02:20:18.502Z,5.05
2018-08-08T02:20:51.639Z,4.78
2018-08-08T02:21:24.636Z,5.30
2018-08-08T02:21:57.563Z,5.67
2018-08-08T02:22:30.485Z,4.80
2018-08-08T02:23:03.468Z,5.00
2018-08-08T02:23:36.375Z,5.50
2018-08-08T02:24:09.450Z,5.08
2018-08-08T02:24:42.371Z,5.80
2018-08-08T02:25:16.283Z,5.90
2018-08-08T02:25:49.317Z,6.17
2018-08-08T02:26:22.242Z,5.58
2018-08-08T02:26:55.157Z,5.62
2018-08-08T02:27:28.115Z,5.60
2018-08-08T02:28:01.124Z,5.40
2018-08-08T02:28:34.317Z,6.50
2018-08-08T02:29:07.296Z,5.12
2018-08-08T02:29:40.207Z,5.30
2018-08-08T02:30:15.672Z,5.20
2018-08-08T02:30:48.877Z,5.30
2018-08-08T02:31:21.814Z,5.78
2018-08-08T02:31:54.746Z,5.75
2018-08-08T02:32:27.749Z,5.35
2018-08-08T02:33:01.223Z,5.50
2018-08-08T02:33:34.134Z,5.80
2018-08-08T02:34:07.074Z,4.95
2018-08-08T02:34:40.018Z,5.72
2018-08-08T02:35:13.186Z,5.55
2018-08-08T02:35:46.111Z,6.25
2018-08-08T02:36:19.131Z,6.35
2018-08-08T02:36:52.058Z,5.40
2018-08-08T02:37:25.494Z,5.85
2018-08-08T02:37:58.396Z,5.53
2018-08-08T02:38:31.663Z,5.80
2018-08-08T02:39:07.066Z,6.08
2018-08-08T02:39:40.009Z,5.55
2018-08-08T02:40:13.178Z,5.60
2018-08-08T02:40:46.501Z,5.20
2018-08-08T02:41:19.601Z,5.50
2018-08-08T02:41:52.761Z,5.75
2018-08-08T02:42:25.689Z,6.00
2018-08-08T02:42:58.618Z,5.15
2018-08-08T02:43:31.661Z,5.80
2018-08-08T02:44:04.809Z,5.42
2018-08-08T02:44:37.753Z,5.33
2018-08-08T02:45:11.926Z,6.00
2018-08-08T02:45:44.845Z,5.58
2018-08-08T02:46:17.851Z,6.17
2018-08-08T02:46:51.089Z,5.53
2018-08-08T02:47:24.024Z,6.00
2018-08-08T02:47:56.950Z,5.25
2018-08-08T02:48:29.989Z,6.00
2018-08-08T02:49:03.066Z,4.72
2018-08-08T02:49:36.128Z,6.08
2018-08-08T02:50:09.806Z,5.83
2018-08-08T02:50:42.939Z,5.08
2018-08-08T02:51:16.275Z,5.92
2018-08-08T02:51:49.360Z,5.42
2018-08-08T02:52:22.290Z,5.30
2018-08-08T02:52:55.209Z,5.70
2018-08-08T02:53:28.266Z,6.15
2018-08-08T02:54:01.702Z,5.62
2018-08-08T02:54:34.639Z,5.53
2018-08-08T02:55:08.965Z,6.28
2018-08-08T02:55:41.878Z,5.20
2018-08-08T02:56:15.077Z,5.62
2018-08-08T02:56:47.992Z,6.33
2018-08-08T02:57:20.903Z,5.17
2018-08-08T02:57:53.836Z,6.67
2018-08-08T02:58:26.829Z,6.42
2018-08-08T02:59:00.011Z,5.70
2018-08-08T02:59:33.238Z,5.85
2018-08-08T03:00:07.003Z,5.40
2018-08-08T03:00:39.930Z,5.92
2018-08-08T03:01:13.125Z,6.00
2018-08-08T03:01:46.256Z,5.17
2018-08-08T03:02:19.188Z,5.90
2018-08-08T03:02:52.274Z,6.12
2018-08-08T03:03:25.506Z,6.15
2018-08-08T03:03:58.440Z,5.60
2018-08-08T03:04:31.420Z,5.60
2018-08-08T03:05:05.005Z,5.92
2018-08-08T03:05:37.934Z,5.60
2018-08-08T03:06:11.063Z,6.30
2018-08-08T03:06:49.338Z,5.40
2018-08-08T03:07:22.285Z,6.20
2018-08-08T03:07:55.781Z,5.70
2018-08-08T03:08:29.137Z,5.65
2018-08-08T03:09:03.054Z,5.70
2018-08-08T03:09:36.407Z,6.70
2018-08-08T03:10:10.861Z,5.80
2018-08-08T03:10:43.815Z,5.62
2018-08-08T03:11:16.963Z,5.15
2018-08-08T03:11:49.908Z,5.28
2018-08-08T03:12:23.303Z,5.45
2018-08-08T03:12:56.241Z,6.05
2018-08-08T03:13:29.182Z,6.30
2018-08-08T03:14:02.341Z,5.53
2018-08-08T03:14:35.274Z,6.47
2018-08-08T03:15:09.793Z,6.15
2018-08-08T03:15:42.710Z,6.20
2018-08-08T03:16:15.645Z,4.92
2018-08-08T03:16:48.589Z,6.00
2018-08-08T03:17:21.496Z,5.60
2018-08-08T03:17:54.517Z,5.87
2018-08-08T03:18:27.560Z,6.50
2018-08-08T03:19:00.613Z,6.30
2018-08-08T03:19:33.632Z,6.47
2018-08-08T03:20:07.103Z,5.58
2018-08-08T03:20:40.167Z,5.87
2018-08-08T03:21:13.122Z,5.65
2018-08-08T03:21:46.041Z,5.92
2018-08-08T03:22:19.191Z,5.70
2018-08-08T03:22:52.265Z,6.28
2018-08-08T03:23:25.221Z,6.47
2018-08-08T03:23:58.309Z,5.58
2018-08-08T03:24:31.283Z,5.67
2018-08-08T03:25:05.231Z,6.05
2018-08-08T03:25:38.159Z,5.50
2018-08-08T03:26:11.364Z,6.17
2018-08-08T03:26:44.476Z,5.47
2018-08-08T03:27:17.381Z,5.83
2018-08-08T03:27:50.294Z,5.28
2018-08-08T03:28:23.203Z,5.80
2018-08-08T03:28:56.406Z,5.83
2018-08-08T03:29:29.325Z,5.60
2018-08-08T03:30:02.354Z,6.10
2018-08-08T03:30:35.294Z,5.80
2018-08-08T03:31:08.314Z,5.75
2018-08-08T03:31:41.250Z,5.30
2018-08-08T03:32:14.153Z,5.50
2018-08-08T03:32:47.273Z,5.03
2018-08-08T03:33:20.187Z,5.22
2018-08-08T03:33:53.142Z,6.30
2018-08-08T03:34:26.054Z,5.75
2018-08-08T03:34:58.979Z,5.80
2018-08-08T03:35:31.944Z,5.42
2018-08-08T03:36:05.112Z,6.22
2018-08-08T03:36:38.150Z,5.50
2018-08-08T03:37:11.115Z,6.70
2018-08-08T03:37:44.525Z,5.45
2018-08-08T03:38:17.558Z,6.00
2018-08-08T03:38:50.579Z,6.85
2018-08-08T03:39:23.531Z,6.30
2018-08-08T03:39:56.511Z,6.75
2018-08-08T03:40:29.467Z,6.30
2018-08-08T03:41:02.443Z,6.10
2018-08-08T03:41:35.365Z,6.17
2018-08-08T03:42:08.388Z,5.50
2018-08-08T03:42:41.417Z,6.22
2018-08-08T03:43:14.365Z,6.08
2018-08-08T03:43:47.292Z,6.05
2018-08-08T03:44:20.262Z,6.22
2018-08-08T03:44:53.210Z,6.58
2018-08-08T03:45:26.188Z,6.10
2018-08-08T03:45:59.254Z,6.08
2018-08-08T03:46:32.237Z,5.75
2018-08-08T03:47:05.677Z,6.15
2018-08-08T03:47:39.168Z,5.78
2018-08-08T03:48:12.095Z,5.92
2018-08-08T03:48:45.047Z,5.83
2018-08-08T03:49:17.982Z,5.62
2018-08-08T03:49:50.885Z,5.75
2018-08-08T03:50:23.810Z,6.30
2018-08-08T03:50:56.758Z,6.05
2018-08-08T03:51:29.681Z,5.95
2018-08-08T03:52:02.644Z,5.75
2018-08-08T03:52:35.577Z,5.47
2018-08-08T03:53:08.634Z,5.80
2018-08-08T03:53:41.516Z,6.15
2018-08-08T03:54:14.490Z,5.50
2018-08-08T03:54:47.501Z,6.20
2018-08-08T03:55:20.416Z,5.90
2018-08-08T03:55:53.362Z,6.05
2018-08-08T03:56:26.280Z,6.33
2018-08-08T03:56:59.210Z,5.60
2018-08-08T03:57:32.151Z,6.42
2018-08-08T03:58:05.261Z,5.90
2018-08-08T03:58:38.198Z,5.65
2018-08-08T03:59:11.233Z,6.03
2018-08-08T03:59:44.241Z,5.97
2018-08-08T04:00:17.879Z,6.08
2018-08-08T04:00:50.783Z,6.30
2018-08-08T04:01:24.059Z,6.15
2018-08-08T04:01:57.029Z,5.47
2018-08-08T04:02:29.968Z,6.12
2018-08-08T04:03:02.897Z,5.85
2018-08-08T04:03:35.806Z,5.40
2018-08-08T04:04:08.733Z,5.60
2018-08-08T04:04:41.699Z,6.30
2018-08-08T04:05:14.626Z,5.72
2018-08-08T04:05:47.619Z,5.50
2018-08-08T04:06:20.514Z,6.05
2018-08-08T04:06:53.743Z,5.40
2018-08-08T04:07:26.660Z,6.17
2018-08-08T04:07:59.590Z,5.30
2018-08-08T04:08:32.540Z,6.45
2018-08-08T04:09:07.036Z,6.60
2018-08-08T04:09:39.989Z,6.28
2018-08-08T04:10:13.364Z,6.15
2018-08-08T04:10:46.445Z,6.30
2018-08-08T04:11:19.332Z,5.70
2018-08-08T04:11:52.297Z,7.00
2018-08-08T04:12:25.261Z,5.83
2018-08-08T04:12:58.214Z,5.85
2018-08-08T04:13:31.133Z,6.40
2018-08-08T04:14:04.344Z,5.40
2018-08-08T04:14:37.459Z,6.25
2018-08-08T04:15:13.068Z,6.35
2018-08-08T04:15:45.999Z,6.30
2018-08-08T04:16:18.937Z,5.87
2018-08-08T04:16:51.890Z,6.55
2018-08-08T04:17:25.677Z,6.30
2018-08-08T04:17:58.682Z,6.83
2018-08-08T04:18:32.489Z,6.37
2018-08-08T04:19:05.663Z,5.60
2018-08-08T04:19:38.749Z,5.85
2018-08-08T04:20:11.930Z,5.97
2018-08-08T04:20:45.047Z,6.20
2018-08-08T04:21:18.022Z,6.25
2018-08-08T04:21:50.930Z,5.87
2018-08-08T04:22:24.082Z,7.20
2018-08-08T04:22:57.046Z,6.08
2018-08-08T04:23:30.014Z,6.30
2018-08-08T04:24:03.137Z,6.65
2018-08-08T04:24:36.239Z,5.85
2018-08-08T04:25:09.888Z,6.80
2018-08-08T04:25:42.834Z,5.90
2018-08-08T04:26:15.766Z,6.65
2018-08-08T04:26:48.704Z,6.42
2018-08-08T04:27:21.623Z,6.50
2018-08-08T04:27:54.691Z,6.70
2018-08-08T04:28:27.618Z,7.37
2018-08-08T04:29:00.553Z,5.87
2018-08-08T04:29:33.471Z,7.25
2018-08-08T04:30:10.169Z,6.70
2018-08-08T04:30:43.183Z,6.60
2018-08-08T04:31:16.153Z,5.80
2018-08-08T04:31:49.066Z,6.00
2018-08-08T04:32:22.133Z,6.55
2018-08-08T04:32:55.054Z,6.72
2018-08-08T04:33:28.009Z,6.65
2018-08-08T04:34:01.254Z,6.40
2018-08-08T04:34:34.216Z,6.30
2018-08-08T04:35:07.555Z,5.85
2018-08-08T04:35:40.490Z,5.83
2018-08-08T04:36:13.459Z,6.28
2018-08-08T04:36:46.390Z,5.83
2018-08-08T04:37:19.395Z,5.78
2018-08-08T04:37:52.329Z,5.70
2018-08-08T04:38:25.386Z,6.45
2018-08-08T04:38:58.315Z,5.90
2018-08-08T04:39:31.306Z,5.92
2018-08-08T04:40:05.220Z,6.10
2018-08-08T04:40:38.409Z,6.10
2018-08-08T04:41:11.343Z,6.50
2018-08-08T04:41:44.457Z,6.22
2018-08-08T04:42:17.630Z,5.53
2018-08-08T04:42:50.570Z,5.75
2018-08-08T04:43:23.531Z,6.33
2018-08-08T04:43:56.437Z,6.60
2018-08-08T04:44:29.367Z,5.40
2018-08-08T04:45:02.300Z,5.55
2018-08-08T04:45:35.317Z,5.83
2018-08-08T04:46:08.646Z,5.97
2018-08-08T04:46:41.589Z,5.60
2018-08-08T04:47:14.541Z,5.60
2018-08-08T04:47:47.638Z,6.12
2018-08-08T04:48:20.599Z,5.87
2018-08-08T04:48:53.950Z,6.35
2018-08-08T04:49:26.881Z,5.20
2018-08-08T04:49:59.851Z,6.12
2018-08-08T04:50:32.860Z,5.37
2018-08-08T04:51:06.030Z,6.30
2018-08-08T04:51:38.958Z,5.58
2018-08-08T04:52:12.079Z,6.67
2018-08-08T04:52:45.443Z,5.80
2018-08-08T04:53:18.449Z,6.03
2018-08-08T04:53:51.453Z,5.25
2018-08-08T04:54:24.650Z,5.40
2018-08-08T04:54:57.565Z,5.28
2018-08-08T04:55:30.736Z,5.62
2018-08-08T04:56:03.710Z,5.65
2018-08-08T04:56:36.677Z,6.00
2018-08-08T04:57:09.609Z,6.10
2018-08-08T04:57:42.786Z,5.45
2018-08-08T04:58:15.742Z,5.50
2018-08-08T04:58:48.673Z,5.85
2018-08-08T04:59:21.674Z,5.78
2018-08-08T04:59:54.589Z,5.67
2018-08-08T05:00:27.561Z,5.55
2018-08-08T05:01:00.539Z,5.90
2018-08-08T05:01:33.491Z,6.08
2018-08-08T05:02:06.504Z,6.47
2018-08-08T05:02:39.501Z,4.87
2018-08-08T05:03:12.720Z,4.92
2018-08-08T05:03:45.684Z,5.25
2018-08-08T05:04:18.770Z,5.40
2018-08-08T05:04:51.768Z,5.60
2018-08-08T05:05:24.679Z,5.90
2018-08-08T05:05:57.652Z,6.25
2018-08-08T05:06:30.685Z,5.72
2018-08-08T05:07:03.638Z,5.58
2018-08-08T05:07:36.964Z,5.42
2018-08-08T05:08:09.996Z,5.17
2018-08-08T05:08:43.192Z,5.58
2018-08-08T05:09:16.131Z,5.65
2018-08-08T05:09:49.082Z,5.90
2018-08-08T05:10:22.029Z,4.75
2018-08-08T05:10:54.952Z,5.78
2018-08-08T05:11:27.894Z,5.87
2018-08-08T05:12:00.949Z,5.80
2018-08-08T05:12:33.868Z,5.58
2018-08-08T05:13:06.837Z,5.78
2018-08-08T05:13:39.762Z,5.40
2018-08-08T05:14:12.686Z,5.65
2018-08-08T05:14:45.651Z,6.08
2018-08-08T05:15:19.304Z,5.58
2018-08-08T05:15:52.233Z,5.30
2018-08-08T05:16:25.157Z,5.62
2018-08-08T05:16:58.177Z,5.78
2018-08-08T05:17:31.124Z,6.17
2018-08-08T05:18:04.121Z,5.58
2018-08-08T05:18:37.050Z,5.95
2018-08-08T05:19:10.201Z,5.35
2018-08-08T05:19:43.164Z,5.55
2018-08-08T05:20:16.428Z,5.87
2018-08-08T05:20:49.273Z,5.22
2018-08-08T05:21:22.308Z,5.72
2018-08-08T05:21:55.258Z,5.55
2018-08-08T05:22:28.229Z,5.20
2018-08-08T05:23:01.167Z,5.17
2018-08-08T05:23:34.109Z,5.70
2018-08-08T05:24:07.114Z,5.42
2018-08-08T05:24:40.094Z,6.08
2018-08-08T05:25:13.337Z,5.62
2018-08-08T05:25:46.238Z,5.50
2018-08-08T05:26:19.213Z,5.58
2018-08-08T05:26:52.300Z,6.10
2018-08-08T05:29:52.764Z,5.40
2018-08-08T05:30:25.749Z,5.12
2018-08-08T05:30:58.662Z,5.33
2018-08-08T05:31:31.652Z,5.72
2018-08-08T05:32:06.301Z,5.22
2018-08-08T05:32:39.665Z,5.83
2018-08-08T05:33:12.803Z,5.37
2018-08-08T05:33:45.826Z,5.20
2018-08-08T05:34:18.841Z,5.00
2018-08-08T05:34:51.883Z,5.67
2018-08-08T05:35:25.062Z,5.53
2018-08-08T05:35:58.220Z,5.75
2018-08-08T05:36:31.296Z,5.67
2018-08-08T05:37:04.332Z,5.47
2018-08-08T05:37:37.467Z,5.20
2018-08-08T05:38:10.429Z,5.40
2018-08-08T05:38:43.354Z,5.40
2018-08-08T05:39:16.285Z,5.97
2018-08-08T05:39:49.202Z,6.15
2018-08-08T05:40:23.481Z,6.03
2018-08-08T05:40:56.436Z,6.22
2018-08-08T05:41:29.407Z,6.35
2018-08-08T05:42:02.423Z,6.67
2018-08-08T05:42:35.412Z,5.05
2018-08-08T05:43:08.410Z,5.45
2018-08-08T05:43:41.410Z,5.42
2018-08-08T05:44:14.397Z,5.35
2018-08-08T05:44:47.394Z,5.53
2018-08-08T05:45:20.903Z,5.33
2018-08-08T05:45:53.917Z,5.72
2018-08-08T05:46:26.948Z,5.70
2018-08-08T05:46:59.989Z,5.65
2018-08-08T05:47:33.010Z,5.25
2018-08-08T05:48:05.969Z,6.00
2018-08-08T05:48:39.196Z,5.62
2018-08-08T05:49:12.183Z,5.70
2018-08-08T05:49:45.109Z,5.95
2018-08-08T05:50:18.082Z,5.60
2018-08-08T05:50:51.001Z,5.20
2018-08-08T05:51:24.162Z,5.33
2018-08-08T05:51:57.207Z,5.97
2018-08-08T05:52:30.158Z,5.90
2018-08-08T05:53:03.261Z,5.60
2018-08-08T05:53:36.279Z,5.97
2018-08-08T05:54:09.196Z,5.75
2018-08-08T05:54:42.277Z,5.90
2018-08-08T05:55:15.723Z,6.28
2018-08-08T05:55:48.981Z,6.10
2018-08-08T05:56:22.044Z,5.87
2018-08-08T05:56:55.031Z,5.65
2018-08-08T05:57:28.041Z,7.08
2018-08-08T05:58:00.982Z,6.67
2018-08-08T05:58:33.963Z,5.60
2018-08-08T05:59:07.011Z,5.40
2018-08-08T05:59:39.941Z,5.90
2018-08-08T06:00:15.983Z,6.00
2018-08-08T06:00:48.912Z,5.87
2018-08-08T06:01:21.950Z,5.55
2018-08-08T06:01:54.945Z,5.75
2018-08-08T06:02:27.916Z,5.47
2018-08-08T06:03:01.370Z,5.83
2018-08-08T06:03:34.335Z,4.62
2018-08-08T06:04:07.276Z,5.90
2018-08-08T06:04:40.457Z,5.40
2018-08-08T06:05:16.379Z,5.37
2018-08-08T06:05:49.425Z,5.28
2018-08-08T06:06:23.662Z,5.40
2018-08-08T06:06:56.552Z,6.50
2018-08-08T06:07:29.585Z,6.37
2018-08-08T06:08:02.574Z,5.15
2018-08-08T06:08:35.515Z,5.37
2018-08-08T06:09:08.802Z,5.00
2018-08-08T06:09:41.823Z,5.75
2018-08-08T06:10:15.192Z,5.75
2018-08-08T06:10:48.129Z,6.10
2018-08-08T06:11:21.110Z,6.17
2018-08-08T06:11:54.044Z,5.45
2018-08-08T06:12:27.421Z,5.70
2018-08-08T06:13:00.430Z,5.75
2018-08-08T06:13:33.465Z,5.72
2018-08-08T06:14:06.632Z,6.12
2018-08-08T06:14:39.709Z,5.80
2018-08-08T06:15:14.672Z,6.10
2018-08-08T06:15:47.606Z,5.15
2018-08-08T06:16:20.614Z,6.62
2018-08-08T06:16:53.658Z,6.22
2018-08-08T06:17:26.609Z,5.70
2018-08-08T06:17:59.498Z,6.20
2018-08-08T06:18:32.664Z,6.22
2018-08-08T06:19:05.741Z,5.83
2018-08-08T06:19:38.896Z,5.67
2018-08-08T06:20:14.500Z,6.15
2018-08-08T06:20:48.287Z,6.15
2018-08-08T06:21:21.185Z,5.75
2018-08-08T06:21:54.298Z,6.25
2018-08-08T06:22:31.397Z,5.22
2018-08-08T06:23:05.113Z,5.50
2018-08-08T06:23:39.728Z,5.95
2018-08-08T06:24:13.904Z,5.60
2018-08-08T06:24:49.481Z,6.03
2018-08-08T06:25:23.639Z,5.50
2018-08-08T06:25:58.886Z,5.92
2018-08-08T06:26:37.032Z,6.08
2018-08-08T06:27:12.600Z,5.78
2018-08-08T06:27:48.240Z,6.17
2018-08-08T06:28:25.283Z,5.92
2018-08-08T06:29:00.467Z,5.97
2018-08-08T06:29:35.336Z,6.00
2018-08-08T06:30:14.674Z,5.65
2018-08-08T06:30:50.441Z,5.65
2018-08-08T06:31:23.457Z,6.53
2018-08-08T06:31:56.414Z,6.47
2018-08-08T06:32:29.437Z,6.30
2018-08-08T06:33:02.360Z,5.50
2018-08-08T06:33:35.927Z,5.72
2018-08-08T06:34:09.038Z,6.15
2018-08-08T06:34:42.128Z,6.08
2018-08-08T06:35:15.606Z,6.03
2018-08-08T06:35:48.517Z,5.95
2018-08-08T06:36:23.972Z,6.60
2018-08-08T06:36:57.086Z,6.10
2018-08-08T06:37:30.063Z,6.00
2018-08-08T06:38:03.596Z,6.40
2018-08-08T06:38:36.589Z,6.42
2018-08-08T06:39:11.514Z,6.62
2018-08-08T06:39:44.457Z,6.62
2018-08-08T06:40:17.367Z,6.03
2018-08-08T06:40:50.467Z,6.22
2018-08-08T06:41:23.443Z,5.85
2018-08-08T06:41:56.430Z,5.40
2018-08-08T06:42:29.369Z,6.22
2018-08-08T06:43:02.271Z,6.00
2018-08-08T06:43:35.248Z,6.37
2018-08-08T06:44:08.257Z,5.22
2018-08-08T06:44:41.230Z,5.72
2018-08-08T06:45:15.717Z,6.03
2018-08-08T06:45:48.662Z,6.72
2018-08-08T06:46:21.593Z,6.47
2018-08-08T06:46:54.742Z,5.85
2018-08-08T06:47:27.785Z,6.37
2018-08-08T06:48:00.894Z,6.75
2018-08-08T06:48:34.291Z,6.22
2018-08-08T06:49:07.340Z,6.08
2018-08-08T06:49:40.326Z,5.97
2018-08-08T06:50:14.157Z,6.80
2018-08-08T06:50:47.096Z,6.83
2018-08-08T06:51:20.181Z,5.80
2018-08-08T06:51:53.193Z,6.12
2018-08-08T06:52:26.243Z,6.90
2018-08-08T06:52:59.467Z,6.70
2018-08-08T06:53:32.410Z,6.40
2018-08-08T06:54:05.487Z,5.40
2018-08-08T06:54:38.442Z,5.78
2018-08-08T06:55:12.442Z,5.50
2018-08-08T06:55:45.415Z,6.65
2018-08-08T06:56:18.330Z,6.30
2018-08-08T06:56:51.433Z,6.28
2018-08-08T06:57:24.352Z,6.00
2018-08-08T06:57:57.406Z,6.30
2018-08-08T06:58:30.442Z,5.60
2018-08-08T06:59:03.436Z,5.95
2018-08-08T06:59:36.377Z,5.80
2018-08-08T07:00:12.001Z,6.50
2018-08-08T07:00:45.605Z,6.10
2018-08-08T07:01:19.021Z,5.53
2018-08-08T07:01:51.954Z,6.20
2018-08-08T07:02:24.886Z,6.12
2018-08-08T07:02:58.858Z,5.85
2018-08-08T07:03:31.818Z,5.92
2018-08-08T07:04:04.795Z,5.70
2018-08-08T07:04:37.853Z,5.70
2018-08-08T07:05:10.853Z,5.78
2018-08-08T07:05:43.819Z,6.20
2018-08-08T07:06:16.952Z,6.30
2018-08-08T07:06:49.982Z,6.70
2018-08-08T07:07:23.146Z,6.70
2018-08-08T07:07:57.065Z,6.58
2018-08-08T07:08:30.014Z,6.30
2018-08-08T07:09:03.139Z,6.28
2018-08-08T07:09:36.365Z,5.90
2018-08-08T07:10:09.778Z,6.50
2018-08-08T07:10:42.758Z,6.20
2018-08-08T07:11:15.746Z,5.80
2018-08-08T07:11:48.832Z,6.75
2018-08-08T07:12:21.942Z,6.30
2018-08-08T07:12:54.874Z,7.10
2018-08-08T07:13:28.237Z,6.65
2018-08-08T07:14:01.237Z,5.87
2018-08-08T07:14:34.161Z,6.28
2018-08-08T07:15:08.550Z,6.10
2018-08-08T07:15:41.719Z,6.62
2018-08-08T07:16:15.900Z,5.55
2018-08-08T07:16:49.265Z,6.50
2018-08-08T07:17:22.378Z,7.10
2018-08-08T07:17:56.453Z,6.90
2018-08-08T07:18:29.953Z,6.67
2018-08-08T07:19:02.874Z,6.45
2018-08-08T07:19:35.797Z,6.20
2018-08-08T07:20:12.021Z,6.20
2018-08-08T07:20:44.967Z,6.17
2018-08-08T07:21:19.985Z,6.75
2018-08-08T07:21:57.155Z,6.25
2018-08-08T07:22:31.547Z,6.50
2018-08-08T07:23:04.566Z,6.08
2018-08-08T07:23:38.446Z,6.53
2018-08-08T07:24:13.888Z,5.83
2018-08-08T07:24:50.864Z,7.15